Westfield, Illinois
Current Conditions -  °F | °C
As of 7:53 AM on Thursday 23 Oct 2014 (Local Time) from KMTO Reporting Station
Clear Clear  
Wind Chill: 35°   Ceiling: Unl
Heat Index: 40°   Visibility: 10mi
Dew Point: 38°   Wind: 7mph
Humidity: 93%   Direction: 150°SSE
Pressure: 30.23"   Gusts: NA
Location:  39.46°N, 88°W
Report Text: KMTO 231253Z AUTO 15006KT 10SM CLR 04/03 A3023 RMK AO2 SLP239 T00440033
Loading
Personal Weather Stations






























Interactive Weather Map
Tropical Storm Tracking
New forecast layout! Learn more

10-Day Weather Forecast

Advertisements
Track Severe Weather on mobile